昆明 の空港の天気 - METARとTAF

昆明巫家餽国際空港 ( ZPPP / KMG ) - 中国 雲南省昆明市
飛行場実況気象(Metar)
観測時間04/25 14:00 CST (04/25 06:00 UTC)
風向・風速南西 10m/s
視程10km以上
天気現象
少しの雲 雲底高度 790m
気温26℃
湿度28%
気圧1017hPa
METARZPPP 250600Z 22010MPS 190V250 9999 FEW026 26/06 Q1017 NOSIG
過去の天気等 Google飛行場航空写真 Wunderground天気予報

過去48時間のMETAR

飛行場予報(TAF)
発表時間: 4/25 09:11 CST (4/25 01:11 UTC)
予報対象時間: 25日14時 CST ~ 26日14時 CST
風向・風速南西 6m/s
視程10km以上
全天の8割程度の雲 雲底高度 790m
26日1時 CST ~ 26日2時 CST に徐々に
風向・風速北東 4m/s
25日17時 CST ~ 25日20時 CST に一時的に
天気現象弱い雷雨
少しの積乱雲 雲底高度 790m
全天の8割程度の雲 雲底高度 790m
TAF ZPPP 250111Z 2506/2606 22006MPS 9999 BKN026 TX27/2508Z TN10/2523Z
BECMG 2517/2518 04004MPS
TEMPO 2509/2512 -TSRA FEW026CB BKN026